sensor_id;sensor_type;location;lat;lon;timestamp;temperature;humidity
72591;SHT31;60625;51.212;5.952;2022-08-19T00:03:23;21.03;71.49
72591;SHT31;60625;51.212;5.952;2022-08-19T00:08:24;20.97;71.63
72591;SHT31;60625;51.212;5.952;2022-08-19T00:13:25;20.87;71.90
72591;SHT31;60625;51.212;5.952;2022-08-19T00:18:28;20.84;72.08
72591;SHT31;60625;51.212;5.952;2022-08-19T00:23:29;20.71;71.67
72591;SHT31;60625;51.212;5.952;2022-08-19T00:28:30;20.38;71.63
72591;SHT31;60625;51.212;5.952;2022-08-19T00:33:33;20.13;72.30
72591;SHT31;60625;51.212;5.952;2022-08-19T00:38:35;20.13;72.71
72591;SHT31;60625;51.212;5.952;2022-08-19T00:43:43;20.16;72.86
72591;SHT31;60625;51.212;5.952;2022-08-19T00:48:44;20.18;73.01
72591;SHT31;60625;51.212;5.952;2022-08-19T00:53:44;20.19;73.22
72591;SHT31;60625;51.212;5.952;2022-08-19T00:58:45;20.22;73.25
72591;SHT31;60625;51.212;5.952;2022-08-19T01:03:47;20.16;73.12
72591;SHT31;60625;51.212;5.952;2022-08-19T01:08:50;19.97;73.38
72591;SHT31;60625;51.212;5.952;2022-08-19T01:13:54;19.82;73.21
72591;SHT31;60625;51.212;5.952;2022-08-19T01:18:55;19.83;73.33
72591;SHT31;60625;51.212;5.952;2022-08-19T01:23:56;19.83;73.28
72591;SHT31;60625;51.212;5.952;2022-08-19T01:29:00;19.90;73.30
72591;SHT31;60625;51.212;5.952;2022-08-19T01:34:01;19.87;73.56
72591;SHT31;60625;51.212;5.952;2022-08-19T01:39:05;19.95;73.98
72591;SHT31;60625;51.212;5.952;2022-08-19T01:44:09;20.07;74.29
72591;SHT31;60625;51.212;5.952;2022-08-19T01:49:11;20.17;74.25
72591;SHT31;60625;51.212;5.952;2022-08-19T01:54:13;20.18;74.19
72591;SHT31;60625;51.212;5.952;2022-08-19T01:59:17;20.10;74.44
72591;SHT31;60625;51.212;5.952;2022-08-19T02:04:20;20.09;74.40
72591;SHT31;60625;51.212;5.952;2022-08-19T02:09:21;20.03;73.74
72591;SHT31;60625;51.212;5.952;2022-08-19T02:14:21;19.75;74.14
72591;SHT31;60625;51.212;5.952;2022-08-19T02:19:23;19.59;74.74
72591;SHT31;60625;51.212;5.952;2022-08-19T02:24:26;19.52;75.68
72591;SHT31;60625;51.212;5.952;2022-08-19T02:29:27;19.50;75.93
72591;SHT31;60625;51.212;5.952;2022-08-19T02:34:29;19.59;75.76
72591;SHT31;60625;51.212;5.952;2022-08-19T02:39:30;19.60;75.93
72591;SHT31;60625;51.212;5.952;2022-08-19T02:44:31;19.52;76.29
72591;SHT31;60625;51.212;5.952;2022-08-19T02:49:34;19.36;76.71
72591;SHT31;60625;51.212;5.952;2022-08-19T02:54:35;19.31;76.94
72591;SHT31;60625;51.212;5.952;2022-08-19T02:59:37;19.35;76.99
72591;SHT31;60625;51.212;5.952;2022-08-19T03:04:40;19.38;76.90
72591;SHT31;60625;51.212;5.952;2022-08-19T03:09:42;19.35;77.03
72591;SHT31;60625;51.212;5.952;2022-08-19T03:14:43;19.27;77.24
72591;SHT31;60625;51.212;5.952;2022-08-19T03:19:44;19.26;77.47
72591;SHT31;60625;51.212;5.952;2022-08-19T03:24:45;19.32;77.42
72591;SHT31;60625;51.212;5.952;2022-08-19T03:29:48;19.41;77.33
72591;SHT31;60625;51.212;5.952;2022-08-19T03:34:48;19.42;77.26
72591;SHT31;60625;51.212;5.952;2022-08-19T03:39:54;19.34;77.35
72591;SHT31;60625;51.212;5.952;2022-08-19T03:44:54;19.23;77.61
72591;SHT31;60625;51.212;5.952;2022-08-19T03:49:55;19.17;77.79
72591;SHT31;60625;51.212;5.952;2022-08-19T03:54:56;19.17;77.79
72591;SHT31;60625;51.212;5.952;2022-08-19T03:59:56;19.09;77.99
72591;SHT31;60625;51.212;5.952;2022-08-19T04:04:57;19.06;78.08
72591;SHT31;60625;51.212;5.952;2022-08-19T04:10:03;19.07;78.02
72591;SHT31;60625;51.212;5.952;2022-08-19T04:15:05;19.13;77.90
72591;SHT31;60625;51.212;5.952;2022-08-19T04:20:08;19.08;77.93
72591;SHT31;60625;51.212;5.952;2022-08-19T04:25:10;19.11;77.88
72591;SHT31;60625;51.212;5.952;2022-08-19T04:30:11;19.15;77.70
72591;SHT31;60625;51.212;5.952;2022-08-19T04:35:13;19.15;77.71
72591;SHT31;60625;51.212;5.952;2022-08-19T04:40:14;19.10;77.84
72591;SHT31;60625;51.212;5.952;2022-08-19T04:45:33;19.09;77.84
72591;SHT31;60625;51.212;5.952;2022-08-19T04:50:39;19.11;77.76
72591;SHT31;60625;51.212;5.952;2022-08-19T04:55:41;19.17;77.51
72591;SHT31;60625;51.212;5.952;2022-08-19T05:00:42;19.19;77.25
72591;SHT31;60625;51.212;5.952;2022-08-19T05:05:44;19.15;77.22
72591;SHT31;60625;51.212;5.952;2022-08-19T05:10:49;19.21;77.14
72591;SHT31;60625;51.212;5.952;2022-08-19T05:15:55;19.22;76.98
72591;SHT31;60625;51.212;5.952;2022-08-19T05:20:57;19.18;77.02
72591;SHT31;60625;51.212;5.952;2022-08-19T05:26:17;19.16;77.13
72591;SHT31;60625;51.212;5.952;2022-08-19T05:31:17;19.13;77.18
72591;SHT31;60625;51.212;5.952;2022-08-19T05:36:19;19.17;77.31
72591;SHT31;60625;51.212;5.952;2022-08-19T05:41:20;19.16;77.50
72591;SHT31;60625;51.212;5.952;2022-08-19T05:46:32;19.15;77.83
72591;SHT31;60625;51.212;5.952;2022-08-19T05:51:33;19.27;77.81
72591;SHT31;60625;51.212;5.952;2022-08-19T05:56:39;19.34;77.82
72591;SHT31;60625;51.212;5.952;2022-08-19T06:01:45;19.37;77.89
72591;SHT31;60625;51.212;5.952;2022-08-19T06:06:52;19.45;77.68
72591;SHT31;60625;51.212;5.952;2022-08-19T06:11:57;19.50;77.44
72591;SHT31;60625;51.212;5.952;2022-08-19T06:17:00;19.56;77.14
72591;SHT31;60625;51.212;5.952;2022-08-19T06:22:02;19.62;77.00
72591;SHT31;60625;51.212;5.952;2022-08-19T06:27:04;19.71;76.75
72591;SHT31;60625;51.212;5.952;2022-08-19T06:32:07;19.75;76.47
72591;SHT31;60625;51.212;5.952;2022-08-19T06:37:08;19.80;76.35
72591;SHT31;60625;51.212;5.952;2022-08-19T06:42:09;19.88;76.18
72591;SHT31;60625;51.212;5.952;2022-08-19T06:47:17;19.94;75.92
72591;SHT31;60625;51.212;5.952;2022-08-19T06:52:20;20.01;75.61
72591;SHT31;60625;51.212;5.952;2022-08-19T06:57:21;20.07;75.56
72591;SHT31;60625;51.212;5.952;2022-08-19T07:02:24;20.17;75.32
72591;SHT31;60625;51.212;5.952;2022-08-19T07:07:26;20.25;75.04
72591;SHT31;60625;51.212;5.952;2022-08-19T07:12:28;20.30;74.75
72591;SHT31;60625;51.212;5.952;2022-08-19T07:17:34;20.46;74.34
72591;SHT31;60625;51.212;5.952;2022-08-19T07:22:37;20.51;73.93
72591;SHT31;60625;51.212;5.952;2022-08-19T07:27:39;20.51;74.07
72591;SHT31;60625;51.212;5.952;2022-08-19T07:32:40;20.59;73.80
72591;SHT31;60625;51.212;5.952;2022-08-19T07:37:43;20.64;73.61
72591;SHT31;60625;51.212;5.952;2022-08-19T07:42:47;20.68;73.60
72591;SHT31;60625;51.212;5.952;2022-08-19T07:47:47;20.72;73.54
72591;SHT31;60625;51.212;5.952;2022-08-19T07:52:48;20.83;72.97
72591;SHT31;60625;51.212;5.952;2022-08-19T07:57:49;20.98;72.48
72591;SHT31;60625;51.212;5.952;2022-08-19T08:02:52;21.15;72.01
72591;SHT31;60625;51.212;5.952;2022-08-19T08:07:54;21.27;71.76
72591;SHT31;60625;51.212;5.952;2022-08-19T08:13:14;21.59;70.91
72591;SHT31;60625;51.212;5.952;2022-08-19T08:18:14;21.86;70.14
72591;SHT31;60625;51.212;5.952;2022-08-19T08:23:15;22.09;69.74
72591;SHT31;60625;51.212;5.952;2022-08-19T08:28:25;22.27;69.29
72591;SHT31;60625;51.212;5.952;2022-08-19T08:33:29;22.50;68.66
72591;SHT31;60625;51.212;5.952;2022-08-19T08:38:31;22.81;67.93
72591;SHT31;60625;51.212;5.952;2022-08-19T08:43:34;23.09;67.28
72591;SHT31;60625;51.212;5.952;2022-08-19T08:48:46;23.34;66.11
72591;SHT31;60625;51.212;5.952;2022-08-19T08:53:54;23.50;65.00
72591;SHT31;60625;51.212;5.952;2022-08-19T08:59:01;23.71;64.11
72591;SHT31;60625;51.212;5.952;2022-08-19T09:04:08;23.97;63.47
72591;SHT31;60625;51.212;5.952;2022-08-19T09:14:48;24.28;62.49
72591;SHT31;60625;51.212;5.952;2022-08-19T09:25:12;24.33;62.08
72591;SHT31;60625;51.212;5.952;2022-08-19T09:30:17;24.63;61.28
72591;SHT31;60625;51.212;5.952;2022-08-19T09:35:28;24.87;60.92
72591;SHT31;60625;51.212;5.952;2022-08-19T09:40:30;25.06;60.04
72591;SHT31;60625;51.212;5.952;2022-08-19T09:45:31;25.13;58.97
72591;SHT31;60625;51.212;5.952;2022-08-19T09:50:32;25.06;58.78
72591;SHT31;60625;51.212;5.952;2022-08-19T09:55:34;25.15;58.64
72591;SHT31;60625;51.212;5.952;2022-08-19T10:00:36;25.39;58.04
72591;SHT31;60625;51.212;5.952;2022-08-19T10:05:38;25.48;56.85
72591;SHT31;60625;51.212;5.952;2022-08-19T10:10:50;25.51;57.01
72591;SHT31;60625;51.212;5.952;2022-08-19T10:15:53;25.61;56.88
72591;SHT31;60625;51.212;5.952;2022-08-19T10:21:05;25.76;56.53
72591;SHT31;60625;51.212;5.952;2022-08-19T10:26:12;26.00;55.19
72591;SHT31;60625;51.212;5.952;2022-08-19T10:31:19;26.09;54.65
72591;SHT31;60625;51.212;5.952;2022-08-19T10:36:31;26.19;53.42
72591;SHT31;60625;51.212;5.952;2022-08-19T10:41:36;26.31;53.06
72591;SHT31;60625;51.212;5.952;2022-08-19T10:46:40;26.55;52.42
72591;SHT31;60625;51.212;5.952;2022-08-19T10:51:42;26.71;51.92
72591;SHT31;60625;51.212;5.952;2022-08-19T10:57:01;26.78;51.22
72591;SHT31;60625;51.212;5.952;2022-08-19T11:02:03;26.89;50.83
72591;SHT31;60625;51.212;5.952;2022-08-19T11:07:09;27.14;50.19
72591;SHT31;60625;51.212;5.952;2022-08-19T11:12:11;27.30;47.46
72591;SHT31;60625;51.212;5.952;2022-08-19T11:17:12;27.35;47.08
72591;SHT31;60625;51.212;5.952;2022-08-19T11:22:13;27.29;47.88
72591;SHT31;60625;51.212;5.952;2022-08-19T11:27:14;27.51;47.03
72591;SHT31;60625;51.212;5.952;2022-08-19T11:32:15;27.54;46.31
72591;SHT31;60625;51.212;5.952;2022-08-19T11:37:16;27.72;46.06
72591;SHT31;60625;51.212;5.952;2022-08-19T11:42:17;27.72;45.69
72591;SHT31;60625;51.212;5.952;2022-08-19T11:47:36;27.72;45.28
72591;SHT31;60625;51.212;5.952;2022-08-19T11:52:38;27.69;45.44
72591;SHT31;60625;51.212;5.952;2022-08-19T11:57:39;27.78;45.37
72591;SHT31;60625;51.212;5.952;2022-08-19T12:02:43;28.04;44.39
72591;SHT31;60625;51.212;5.952;2022-08-19T12:07:44;28.11;45.01
72591;SHT31;60625;51.212;5.952;2022-08-19T12:12:46;28.04;45.56
72591;SHT31;60625;51.212;5.952;2022-08-19T12:17:47;27.87;45.58
72591;SHT31;60625;51.212;5.952;2022-08-19T12:22:48;27.76;45.63
72591;SHT31;60625;51.212;5.952;2022-08-19T12:27:50;28.00;45.85
72591;SHT31;60625;51.212;5.952;2022-08-19T12:32:52;28.21;45.35
72591;SHT31;60625;51.212;5.952;2022-08-19T12:37:53;28.23;45.72
72591;SHT31;60625;51.212;5.952;2022-08-19T12:42:53;28.48;44.80
72591;SHT31;60625;51.212;5.952;2022-08-19T12:47:54;28.70;43.65
72591;SHT31;60625;51.212;5.952;2022-08-19T12:52:55;28.60;43.83
72591;SHT31;60625;51.212;5.952;2022-08-19T12:57:57;28.66;43.95
72591;SHT31;60625;51.212;5.952;2022-08-19T13:02:58;28.79;44.19
72591;SHT31;60625;51.212;5.952;2022-08-19T13:07:59;28.61;44.92
72591;SHT31;60625;51.212;5.952;2022-08-19T13:13:01;28.32;45.17
72591;SHT31;60625;51.212;5.952;2022-08-19T13:18:09;28.38;45.90
72591;SHT31;60625;51.212;5.952;2022-08-19T13:23:11;28.48;46.22
72591;SHT31;60625;51.212;5.952;2022-08-19T13:28:11;28.21;47.54
72591;SHT31;60625;51.212;5.952;2022-08-19T13:33:12;28.40;48.08
72591;SHT31;60625;51.212;5.952;2022-08-19T13:38:17;28.78;47.81
72591;SHT31;60625;51.212;5.952;2022-08-19T13:43:22;28.66;47.83
72591;SHT31;60625;51.212;5.952;2022-08-19T13:48:26;28.33;48.90
72591;SHT31;60625;51.212;5.952;2022-08-19T13:53:26;28.43;48.55
72591;SHT31;60625;51.212;5.952;2022-08-19T13:58:27;28.45;48.67
72591;SHT31;60625;51.212;5.952;2022-08-19T14:03:28;28.33;48.97
72591;SHT31;60625;51.212;5.952;2022-08-19T14:08:28;28.07;49.74
72591;SHT31;60625;51.212;5.952;2022-08-19T14:13:32;28.00;49.77
72591;SHT31;60625;51.212;5.952;2022-08-19T14:18:34;27.83;50.03
72591;SHT31;60625;51.212;5.952;2022-08-19T14:23:35;27.73;50.38
72591;SHT31;60625;51.212;5.952;2022-08-19T14:28:36;27.57;50.99
72591;SHT31;60625;51.212;5.952;2022-08-19T14:33:37;27.51;51.29
72591;SHT31;60625;51.212;5.952;2022-08-19T14:38:38;27.33;51.81
72591;SHT31;60625;51.212;5.952;2022-08-19T14:43:40;27.37;52.27
72591;SHT31;60625;51.212;5.952;2022-08-19T14:48:42;27.78;51.78
72591;SHT31;60625;51.212;5.952;2022-08-19T14:53:44;27.92;50.89
72591;SHT31;60625;51.212;5.952;2022-08-19T14:58:45;27.84;50.92
72591;SHT31;60625;51.212;5.952;2022-08-19T15:03:46;27.76;51.27
72591;SHT31;60625;51.212;5.952;2022-08-19T15:08:48;27.81;51.49
72591;SHT31;60625;51.212;5.952;2022-08-19T15:13:52;27.85;51.49
72591;SHT31;60625;51.212;5.952;2022-08-19T15:18:54;27.94;51.35
72591;SHT31;60625;51.212;5.952;2022-08-19T15:23:57;27.96;51.06
72591;SHT31;60625;51.212;5.952;2022-08-19T15:29:00;27.95;50.88
72591;SHT31;60625;51.212;5.952;2022-08-19T15:34:03;27.94;50.79
72591;SHT31;60625;51.212;5.952;2022-08-19T15:39:05;27.94;51.22
72591;SHT31;60625;51.212;5.952;2022-08-19T15:44:10;27.88;51.47
72591;SHT31;60625;51.212;5.952;2022-08-19T15:49:16;27.90;51.43
72591;SHT31;60625;51.212;5.952;2022-08-19T15:54:19;27.75;51.28
72591;SHT31;60625;51.212;5.952;2022-08-19T15:59:20;27.58;52.01
72591;SHT31;60625;51.212;5.952;2022-08-19T16:04:40;27.48;52.37
72591;SHT31;60625;51.212;5.952;2022-08-19T16:09:59;27.30;52.85
72591;SHT31;60625;51.212;5.952;2022-08-19T16:14:59;27.20;53.22
72591;SHT31;60625;51.212;5.952;2022-08-19T16:20:01;27.13;52.96
72591;SHT31;60625;51.212;5.952;2022-08-19T16:25:05;26.84;53.56
72591;SHT31;60625;51.212;5.952;2022-08-19T16:30:08;26.62;54.23
72591;SHT31;60625;51.212;5.952;2022-08-19T16:35:10;26.56;54.50
72591;SHT31;60625;51.212;5.952;2022-08-19T16:40:11;26.52;54.60
72591;SHT31;60625;51.212;5.952;2022-08-19T16:45:12;26.49;54.81
72591;SHT31;60625;51.212;5.952;2022-08-19T16:50:12;26.49;54.92
72591;SHT31;60625;51.212;5.952;2022-08-19T16:55:13;26.57;54.92
72591;SHT31;60625;51.212;5.952;2022-08-19T17:00:14;26.55;54.74
72591;SHT31;60625;51.212;5.952;2022-08-19T17:05:15;26.45;54.65
72591;SHT31;60625;51.212;5.952;2022-08-19T17:10:16;26.36;55.01
72591;SHT31;60625;51.212;5.952;2022-08-19T17:15:17;26.32;55.17
72591;SHT31;60625;51.212;5.952;2022-08-19T17:20:22;26.25;57.21
72591;SHT31;60625;51.212;5.952;2022-08-19T17:25:23;26.12;60.00
72591;SHT31;60625;51.212;5.952;2022-08-19T17:30:25;25.75;62.24
72591;SHT31;60625;51.212;5.952;2022-08-19T17:35:26;25.46;63.78
72591;SHT31;60625;51.212;5.952;2022-08-19T17:40:26;25.38;64.73
72591;SHT31;60625;51.212;5.952;2022-08-19T17:45:27;25.40;64.97
72591;SHT31;60625;51.212;5.952;2022-08-19T17:50:28;25.26;66.68
72591;SHT31;60625;51.212;5.952;2022-08-19T17:55:29;25.19;67.15
72591;SHT31;60625;51.212;5.952;2022-08-19T18:00:32;24.95;67.52
72591;SHT31;60625;51.212;5.952;2022-08-19T18:05:39;24.76;67.82
72591;SHT31;60625;51.212;5.952;2022-08-19T18:10:42;24.35;69.29
72591;SHT31;60625;51.212;5.952;2022-08-19T18:15:43;23.90;70.75
72591;SHT31;60625;51.212;5.952;2022-08-19T18:20:43;23.54;71.82
72591;SHT31;60625;51.212;5.952;2022-08-19T18:25:44;23.31;72.69
72591;SHT31;60625;51.212;5.952;2022-08-19T18:30:45;23.23;73.14
72591;SHT31;60625;51.212;5.952;2022-08-19T18:35:47;23.18;73.49
72591;SHT31;60625;51.212;5.952;2022-08-19T18:40:51;23.14;73.43
72591;SHT31;60625;51.212;5.952;2022-08-19T18:46:10;23.22;73.71
72591;SHT31;60625;51.212;5.952;2022-08-19T18:51:29;23.36;73.25
72591;SHT31;60625;51.212;5.952;2022-08-19T18:56:33;23.32;73.06
72591;SHT31;60625;51.212;5.952;2022-08-19T19:01:37;23.20;73.39
72591;SHT31;60625;51.212;5.952;2022-08-19T19:06:47;23.12;73.68
72591;SHT31;60625;51.212;5.952;2022-08-19T19:11:49;23.05;73.38
72591;SHT31;60625;51.212;5.952;2022-08-19T19:16:53;23.05;73.74
72591;SHT31;60625;51.212;5.952;2022-08-19T19:21:54;23.04;73.80
72591;SHT31;60625;51.212;5.952;2022-08-19T19:26:56;22.94;73.79
72591;SHT31;60625;51.212;5.952;2022-08-19T19:31:59;22.79;74.32
72591;SHT31;60625;51.212;5.952;2022-08-19T19:37:00;22.77;74.57
72591;SHT31;60625;51.212;5.952;2022-08-19T19:42:05;22.79;74.53
72591;SHT31;60625;51.212;5.952;2022-08-19T19:47:11;22.76;74.63
72591;SHT31;60625;51.212;5.952;2022-08-19T19:52:14;22.79;74.86
72591;SHT31;60625;51.212;5.952;2022-08-19T19:57:14;22.83;74.74
72591;SHT31;60625;51.212;5.952;2022-08-19T20:02:15;22.80;74.93
72591;SHT31;60625;51.212;5.952;2022-08-19T20:07:17;22.64;75.29
72591;SHT31;60625;51.212;5.952;2022-08-19T20:12:37;22.48;75.76
72591;SHT31;60625;51.212;5.952;2022-08-19T20:17:38;22.40;76.17
72591;SHT31;60625;51.212;5.952;2022-08-19T20:22:41;22.53;76.10
72591;SHT31;60625;51.212;5.952;2022-08-19T20:27:43;22.67;75.66
72591;SHT31;60625;51.212;5.952;2022-08-19T20:32:44;22.69;75.64
72591;SHT31;60625;51.212;5.952;2022-08-19T20:37:48;22.71;75.79
72591;SHT31;60625;51.212;5.952;2022-08-19T20:42:50;22.67;75.93
72591;SHT31;60625;51.212;5.952;2022-08-19T20:47:50;22.64;76.01
72591;SHT31;60625;51.212;5.952;2022-08-19T20:52:51;22.66;76.05
72591;SHT31;60625;51.212;5.952;2022-08-19T20:57:51;22.63;76.22
72591;SHT31;60625;51.212;5.952;2022-08-19T21:02:52;22.60;76.18
72591;SHT31;60625;51.212;5.952;2022-08-19T21:07:53;22.66;75.93
72591;SHT31;60625;51.212;5.952;2022-08-19T21:12:53;22.67;75.89
72591;SHT31;60625;51.212;5.952;2022-08-19T21:17:54;22.57;76.17
72591;SHT31;60625;51.212;5.952;2022-08-19T21:22:56;22.52;76.44
72591;SHT31;60625;51.212;5.952;2022-08-19T21:27:56;22.56;76.50
72591;SHT31;60625;51.212;5.952;2022-08-19T21:32:58;22.59;76.40
72591;SHT31;60625;51.212;5.952;2022-08-19T21:38:00;22.54;76.44
72591;SHT31;60625;51.212;5.952;2022-08-19T21:43:01;22.51;76.39
72591;SHT31;60625;51.212;5.952;2022-08-19T21:48:02;22.55;76.30
72591;SHT31;60625;51.212;5.952;2022-08-19T21:53:04;22.56;76.11
72591;SHT31;60625;51.212;5.952;2022-08-19T21:58:04;22.50;76.24
72591;SHT31;60625;51.212;5.952;2022-08-19T22:03:05;22.44;76.14
72591;SHT31;60625;51.212;5.952;2022-08-19T22:08:06;22.50;76.11
72591;SHT31;60625;51.212;5.952;2022-08-19T22:13:07;22.56;76.23
72591;SHT31;60625;51.212;5.952;2022-08-19T22:18:08;22.48;76.33
72591;SHT31;60625;51.212;5.952;2022-08-19T22:23:09;22.39;76.49
72591;SHT31;60625;51.212;5.952;2022-08-19T22:28:11;22.39;76.78
72591;SHT31;60625;51.212;5.952;2022-08-19T22:33:18;22.40;76.81
72591;SHT31;60625;51.212;5.952;2022-08-19T22:38:20;22.34;76.89
72591;SHT31;60625;51.212;5.952;2022-08-19T22:43:25;22.27;77.03
72591;SHT31;60625;51.212;5.952;2022-08-19T22:48:31;22.26;77.18
72591;SHT31;60625;51.212;5.952;2022-08-19T22:53:39;22.22;77.39
72591;SHT31;60625;51.212;5.952;2022-08-19T22:58:44;22.10;77.68
72591;SHT31;60625;51.212;5.952;2022-08-19T23:03:46;22.02;77.92
72591;SHT31;60625;51.212;5.952;2022-08-19T23:08:47;22.07;77.89
72591;SHT31;60625;51.212;5.952;2022-08-19T23:13:47;22.06;77.88
72591;SHT31;60625;51.212;5.952;2022-08-19T23:18:48;22.00;77.99
72591;SHT31;60625;51.212;5.952;2022-08-19T23:23:48;22.02;78.02
72591;SHT31;60625;51.212;5.952;2022-08-19T23:28:49;22.09;77.92
72591;SHT31;60625;51.212;5.952;2022-08-19T23:34:08;22.07;77.85
72591;SHT31;60625;51.212;5.952;2022-08-19T23:39:09;22.08;78.12
72591;SHT31;60625;51.212;5.952;2022-08-19T23:44:09;22.10;77.96
72591;SHT31;60625;51.212;5.952;2022-08-19T23:49:10;22.08;78.24
72591;SHT31;60625;51.212;5.952;2022-08-19T23:54:13;22.07;78.11
72591;SHT31;60625;51.212;5.952;2022-08-19T23:59:14;22.02;78.13
